sensor_id;sensor_type;location;lat;lon;timestamp;pressure;altitude;pressure_sealevel;temperature;humidity
20394;BME280;10356;50.544;9.642;2022-10-10T00:01:57;98476.06;;;4.39;100.00
20394;BME280;10356;50.544;9.642;2022-10-10T00:04:24;98478.59;;;4.40;100.00
20394;BME280;10356;50.544;9.642;2022-10-10T00:06:50;98466.97;;;4.49;100.00
20394;BME280;10356;50.544;9.642;2022-10-10T00:09:17;98466.91;;;4.50;100.00
20394;BME280;10356;50.544;9.642;2022-10-10T00:11:45;98471.16;;;4.51;100.00
20394;BME280;10356;50.544;9.642;2022-10-10T00:14:11;98471.38;;;4.47;100.00
20394;BME280;10356;50.544;9.642;2022-10-10T00:16:37;98469.72;;;4.46;100.00
20394;BME280;10356;50.544;9.642;2022-10-10T00:19:04;98466.91;;;4.50;100.00
20394;BME280;10356;50.544;9.642;2022-10-10T00:21:31;98465.03;;;4.54;100.00
20394;BME280;10356;50.544;9.642;2022-10-10T00:23:58;98457.09;;;4.57;100.00
20394;BME280;10356;50.544;9.642;2022-10-10T00:26:25;98451.59;;;4.64;100.00
20394;BME280;10356;50.544;9.642;2022-10-10T00:28:52;98448.75;;;4.69;100.00
20394;BME280;10356;50.544;9.642;2022-10-10T00:31:19;98452.78;;;4.74;100.00
20394;BME280;10356;50.544;9.642;2022-10-10T00:33:46;98442.22;;;4.79;100.00
20394;BME280;10356;50.544;9.642;2022-10-10T00:36:13;98447.16;;;4.83;100.00
20394;BME280;10356;50.544;9.642;2022-10-10T00:38:39;98442.66;;;4.87;100.00
20394;BME280;10356;50.544;9.642;2022-10-10T00:41:06;98444.91;;;4.93;100.00
20394;BME280;10356;50.544;9.642;2022-10-10T00:43:33;98437.78;;;4.98;100.00
20394;BME280;10356;50.544;9.642;2022-10-10T00:46:01;98436.63;;;5.03;100.00
20394;BME280;10356;50.544;9.642;2022-10-10T00:48:30;98437.97;;;5.10;100.00
20394;BME280;10356;50.544;9.642;2022-10-10T00:51:00;98439.53;;;5.13;100.00
20394;BME280;10356;50.544;9.642;2022-10-10T00:53:31;98431.75;;;5.15;100.00
20394;BME280;10356;50.544;9.642;2022-10-10T00:55:58;98436.59;;;5.21;100.00
20394;BME280;10356;50.544;9.642;2022-10-10T00:58:25;98443.34;;;5.23;100.00
20394;BME280;10356;50.544;9.642;2022-10-10T01:00:52;98432.06;;;5.24;100.00
20394;BME280;10356;50.544;9.642;2022-10-10T01:03:20;98432.59;;;5.31;100.00
20394;BME280;10356;50.544;9.642;2022-10-10T01:05:48;98433.25;;;5.34;100.00
20394;BME280;10356;50.544;9.642;2022-10-10T01:08:16;98427.94;;;5.37;100.00
20394;BME280;10356;50.544;9.642;2022-10-10T01:10:51;98425.94;;;5.42;100.00
20394;BME280;10356;50.544;9.642;2022-10-10T01:13:27;98420.75;;;5.42;100.00
20394;BME280;10356;50.544;9.642;2022-10-10T01:16:00;98422.25;;;5.46;100.00
20394;BME280;10356;50.544;9.642;2022-10-10T01:18:37;98411.69;;;5.51;100.00
20394;BME280;10356;50.544;9.642;2022-10-10T01:21:16;98412.25;;;5.56;100.00
20394;BME280;10356;50.544;9.642;2022-10-10T01:24:23;98412.94;;;5.59;100.00
20394;BME280;10356;50.544;9.642;2022-10-10T01:27:15;98405.00;;;5.62;100.00
20394;BME280;10356;50.544;9.642;2022-10-10T01:29:47;98399.75;;;5.64;100.00
20394;BME280;10356;50.544;9.642;2022-10-10T01:32:21;98402.91;;;5.69;100.00
20394;BME280;10356;50.544;9.642;2022-10-10T01:34:55;98389.91;;;5.70;100.00
20394;BME280;10356;50.544;9.642;2022-10-10T01:37:33;98382.16;;;5.70;100.00
20394;BME280;10356;50.544;9.642;2022-10-10T01:40:07;98389.75;;;5.73;100.00
20394;BME280;10356;50.544;9.642;2022-10-10T01:42:39;98382.75;;;5.75;100.00
20394;BME280;10356;50.544;9.642;2022-10-10T01:45:09;98373.81;;;5.81;100.00
20394;BME280;10356;50.544;9.642;2022-10-10T01:47:35;98382.25;;;5.84;100.00
20394;BME280;10356;50.544;9.642;2022-10-10T01:50:06;98378.75;;;5.85;100.00
20394;BME280;10356;50.544;9.642;2022-10-10T01:52:42;98382.16;;;5.86;100.00
20394;BME280;10356;50.544;9.642;2022-10-10T01:55:33;98376.91;;;5.87;100.00
20394;BME280;10356;50.544;9.642;2022-10-10T01:58:16;98365.94;;;5.82;100.00
20394;BME280;10356;50.544;9.642;2022-10-10T02:00:49;98366.88;;;5.81;100.00
20394;BME280;10356;50.544;9.642;2022-10-10T02:03:21;98363.47;;;5.81;100.00
20394;BME280;10356;50.544;9.642;2022-10-10T02:05:52;98366.19;;;5.78;100.00
20394;BME280;10356;50.544;9.642;2022-10-10T02:08:25;98370.38;;;5.80;100.00
20394;BME280;10356;50.544;9.642;2022-10-10T02:10:56;98374.38;;;5.86;100.00
20394;BME280;10356;50.544;9.642;2022-10-10T02:13:28;98370.25;;;5.83;100.00
20394;BME280;10356;50.544;9.642;2022-10-10T02:15:58;98362.53;;;5.82;100.00
20394;BME280;10356;50.544;9.642;2022-10-10T02:18:28;98369.47;;;5.81;100.00
20394;BME280;10356;50.544;9.642;2022-10-10T02:20:57;98368.63;;;5.81;100.00
20394;BME280;10356;50.544;9.642;2022-10-10T02:23:24;98367.13;;;5.77;100.00
20394;BME280;10356;50.544;9.642;2022-10-10T02:25:52;98367.38;;;5.72;100.00
20394;BME280;10356;50.544;9.642;2022-10-10T02:28:23;98374.25;;;5.73;100.00
20394;BME280;10356;50.544;9.642;2022-10-10T02:30:55;98369.31;;;5.69;100.00
20394;BME280;10356;50.544;9.642;2022-10-10T02:33:27;98361.47;;;5.70;100.00
20394;BME280;10356;50.544;9.642;2022-10-10T02:35:54;98359.97;;;5.66;100.00
20394;BME280;10356;50.544;9.642;2022-10-10T02:38:22;98356.75;;;5.63;100.00
20394;BME280;10356;50.544;9.642;2022-10-10T02:40:49;98357.72;;;5.60;100.00
20394;BME280;10356;50.544;9.642;2022-10-10T02:43:16;98358.66;;;5.59;100.00
20394;BME280;10356;50.544;9.642;2022-10-10T02:45:44;98355.41;;;5.56;100.00
20394;BME280;10356;50.544;9.642;2022-10-10T02:48:11;98357.97;;;5.56;100.00
20394;BME280;10356;50.544;9.642;2022-10-10T02:50:39;98353.25;;;5.48;100.00
20394;BME280;10356;50.544;9.642;2022-10-10T02:53:06;98344.75;;;5.46;100.00
20394;BME280;10356;50.544;9.642;2022-10-10T02:55:32;98343.09;;;5.45;100.00
20394;BME280;10356;50.544;9.642;2022-10-10T02:57:59;98343.09;;;5.45;100.00
20394;BME280;10356;50.544;9.642;2022-10-10T03:00:25;98342.25;;;5.45;100.00
20394;BME280;10356;50.544;9.642;2022-10-10T03:02:52;98340.75;;;5.41;100.00
20394;BME280;10356;50.544;9.642;2022-10-10T03:05:18;98332.25;;;5.39;100.00
20394;BME280;10356;50.544;9.642;2022-10-10T03:07:46;98346.91;;;5.38;100.00
20394;BME280;10356;50.544;9.642;2022-10-10T03:10:12;98346.06;;;5.38;100.00
20394;BME280;10356;50.544;9.642;2022-10-10T03:12:39;98346.91;;;5.38;100.00
20394;BME280;10356;50.544;9.642;2022-10-10T03:15:06;98342.75;;;5.36;100.00
20394;BME280;10356;50.544;9.642;2022-10-10T03:17:35;98347.84;;;5.37;100.00
20394;BME280;10356;50.544;9.642;2022-10-10T03:20:02;98342.84;;;5.34;100.00
20394;BME280;10356;50.544;9.642;2022-10-10T03:22:29;98330.75;;;5.35;100.00
20394;BME280;10356;50.544;9.642;2022-10-10T03:24:57;98335.28;;;5.31;100.00
20394;BME280;10356;50.544;9.642;2022-10-10T03:27:23;98333.59;;;5.30;100.00
20394;BME280;10356;50.544;9.642;2022-10-10T03:29:50;98334.69;;;5.26;100.00
20394;BME280;10356;50.544;9.642;2022-10-10T03:32:16;98332.09;;;5.26;100.00
20394;BME280;10356;50.544;9.642;2022-10-10T03:34:43;98334.78;;;5.25;100.00
20394;BME280;10356;50.544;9.642;2022-10-10T03:37:09;98325.44;;;5.22;100.00
20394;BME280;10356;50.544;9.642;2022-10-10T03:39:36;98333.19;;;5.22;100.00
20394;BME280;10356;50.544;9.642;2022-10-10T03:42:04;98336.84;;;5.18;100.00
20394;BME280;10356;50.544;9.642;2022-10-10T03:44:31;98331.16;;;5.11;100.00
20394;BME280;10356;50.544;9.642;2022-10-10T03:46:57;98336.44;;;5.10;100.00
20394;BME280;10356;50.544;9.642;2022-10-10T03:49:24;98335.44;;;5.13;100.00
20394;BME280;10356;50.544;9.642;2022-10-10T03:51:50;98336.25;;;5.13;100.00
20394;BME280;10356;50.544;9.642;2022-10-10T03:54:17;98331.25;;;5.10;100.00
20394;BME280;10356;50.544;9.642;2022-10-10T03:56:44;98336.44;;;5.10;100.00
20394;BME280;10356;50.544;9.642;2022-10-10T03:59:12;98337.19;;;5.12;100.00
20394;BME280;10356;50.544;9.642;2022-10-10T04:01:38;98342.44;;;5.10;100.00
20394;BME280;10356;50.544;9.642;2022-10-10T04:04:05;98338.25;;;5.08;100.00
20394;BME280;10356;50.544;9.642;2022-10-10T04:06:31;98333.25;;;5.05;100.00
20394;BME280;10356;50.544;9.642;2022-10-10T04:08:58;98335.81;;;5.05;100.00
20394;BME280;10356;50.544;9.642;2022-10-10T04:11:24;98333.25;;;5.05;100.00
20394;BME280;10356;50.544;9.642;2022-10-10T04:13:50;98333.50;;;5.00;100.00
20394;BME280;10356;50.544;9.642;2022-10-10T04:16:18;98331.00;;;4.99;100.00
20394;BME280;10356;50.544;9.642;2022-10-10T04:18:45;98333.75;;;4.96;100.00
20394;BME280;10356;50.544;9.642;2022-10-10T04:21:11;98332.81;;;4.97;100.00
20394;BME280;10356;50.544;9.642;2022-10-10T04:23:38;98339.25;;;4.90;100.00
20394;BME280;10356;50.544;9.642;2022-10-10T04:26:05;98336.06;;;4.85;100.00
20394;BME280;10356;50.544;9.642;2022-10-10T04:28:32;98331.06;;;4.82;100.00
20394;BME280;10356;50.544;9.642;2022-10-10T04:30:58;98344.22;;;4.77;100.00
20394;BME280;10356;50.544;9.642;2022-10-10T04:33:26;98346.03;;;4.75;100.00
20394;BME280;10356;50.544;9.642;2022-10-10T04:35:53;98343.69;;;4.71;100.00
20394;BME280;10356;50.544;9.642;2022-10-10T04:38:19;98345.47;;;4.70;100.00
20394;BME280;10356;50.544;9.642;2022-10-10T04:40:47;98343.13;;;4.66;100.00
20394;BME280;10356;50.544;9.642;2022-10-10T04:43:14;98339.03;;;4.62;100.00
20394;BME280;10356;50.544;9.642;2022-10-10T04:45:40;98347.00;;;4.57;100.00
20394;BME280;10356;50.544;9.642;2022-10-10T04:48:06;98346.34;;;4.54;100.00
20394;BME280;10356;50.544;9.642;2022-10-10T04:50:34;98337.19;;;4.48;100.00
20394;BME280;10356;50.544;9.642;2022-10-10T04:53:01;98331.41;;;4.43;100.00
20394;BME280;10356;50.544;9.642;2022-10-10T04:55:27;98337.50;;;4.42;100.00
20394;BME280;10356;50.544;9.642;2022-10-10T04:57:54;98336.75;;;4.40;100.00
20394;BME280;10356;50.544;9.642;2022-10-10T05:00:20;98334.47;;;4.34;100.00
20394;BME280;10356;50.544;9.642;2022-10-10T05:02:47;98337.09;;;4.33;100.00
20394;BME280;10356;50.544;9.642;2022-10-10T05:05:13;98331.19;;;4.31;100.00
20394;BME280;10356;50.544;9.642;2022-10-10T05:07:41;98330.59;;;4.25;100.00
20394;BME280;10356;50.544;9.642;2022-10-10T05:10:08;98333.31;;;4.22;100.00
20394;BME280;10356;50.544;9.642;2022-10-10T05:12:34;98330.91;;;4.19;100.00
20394;BME280;10356;50.544;9.642;2022-10-10T05:15:01;98331.91;;;4.17;100.00
20394;BME280;10356;50.544;9.642;2022-10-10T05:17:27;98328.78;;;4.10;100.00
20394;BME280;10356;50.544;9.642;2022-10-10T05:19:54;98328.88;;;4.09;100.00
20394;BME280;10356;50.544;9.642;2022-10-10T05:22:20;98333.19;;;4.08;100.00
20394;BME280;10356;50.544;9.642;2022-10-10T05:24:48;98332.22;;;4.11;100.00
20394;BME280;10356;50.544;9.642;2022-10-10T05:27:15;98332.38;;;4.08;100.00
20394;BME280;10356;50.544;9.642;2022-10-10T05:29:41;98333.34;;;4.05;100.00
20394;BME280;10356;50.544;9.642;2022-10-10T05:32:08;98342.91;;;4.03;100.00
20394;BME280;10356;50.544;9.642;2022-10-10T05:34:34;98334.50;;;4.00;100.00
20394;BME280;10356;50.544;9.642;2022-10-10T05:37:01;98336.31;;;3.98;100.00
20394;BME280;10356;50.544;9.642;2022-10-10T05:39:27;98332.16;;;3.95;100.00
20394;BME280;10356;50.544;9.642;2022-10-10T05:41:55;98332.28;;;3.92;100.00
20394;BME280;10356;50.544;9.642;2022-10-10T05:44:22;98332.28;;;3.92;100.00
20394;BME280;10356;50.544;9.642;2022-10-10T05:46:48;98341.91;;;3.89;100.00
20394;BME280;10356;50.544;9.642;2022-10-10T05:49:15;98336.75;;;3.89;100.00
20394;BME280;10356;50.544;9.642;2022-10-10T05:51:41;98327.44;;;3.86;100.00
20394;BME280;10356;50.544;9.642;2022-10-10T05:54:08;98331.69;;;3.87;100.00
20394;BME280;10356;50.544;9.642;2022-10-10T05:56:35;98326.59;;;3.86;100.00
20394;BME280;10356;50.544;9.642;2022-10-10T05:59:03;98337.59;;;3.89;100.00
20394;BME280;10356;50.544;9.642;2022-10-10T06:01:29;98333.03;;;3.94;100.00
20394;BME280;10356;50.544;9.642;2022-10-10T06:03:56;98331.22;;;3.96;100.00
20394;BME280;10356;50.544;9.642;2022-10-10T06:06:23;98331.84;;;4.01;100.00
20394;BME280;10356;50.544;9.642;2022-10-10T06:08:50;98341.97;;;4.04;100.00
20394;BME280;10356;50.544;9.642;2022-10-10T06:11:17;98341.00;;;4.07;100.00
20394;BME280;10356;50.544;9.642;2022-10-10T06:13:45;98337.53;;;4.08;100.00
20394;BME280;10356;50.544;9.642;2022-10-10T06:16:16;98342.75;;;4.06;100.00
20394;BME280;10356;50.544;9.642;2022-10-10T06:18:42;98345.19;;;4.09;100.00
20394;BME280;10356;50.544;9.642;2022-10-10T06:21:09;98342.38;;;4.14;100.00
20394;BME280;10356;50.544;9.642;2022-10-10T06:23:36;98344.56;;;4.21;100.00
20394;BME280;10356;50.544;9.642;2022-10-10T06:26:03;98346.75;;;4.29;100.00
20394;BME280;10356;50.544;9.642;2022-10-10T06:28:29;98339.63;;;4.34;100.00
20394;BME280;10356;50.544;9.642;2022-10-10T06:30:58;98347.19;;;4.37;100.00
20394;BME280;10356;50.544;9.642;2022-10-10T06:33:26;98350.44;;;4.41;100.00
20394;BME280;10356;50.544;9.642;2022-10-10T06:35:53;98352.78;;;4.45;100.00
20394;BME280;10356;50.544;9.642;2022-10-10T06:38:20;98355.16;;;4.50;100.00
20394;BME280;10356;50.544;9.642;2022-10-10T06:40:47;98352.34;;;4.54;100.00
20394;BME280;10356;50.544;9.642;2022-10-10T06:43:14;98352.84;;;4.61;100.00
20394;BME280;10356;50.544;9.642;2022-10-10T06:45:43;98359.13;;;4.72;100.00
20394;BME280;10356;50.544;9.642;2022-10-10T06:48:11;98358.09;;;4.75;100.00
20394;BME280;10356;50.544;9.642;2022-10-10T06:50:39;98362.19;;;4.79;100.00
20394;BME280;10356;50.544;9.642;2022-10-10T06:53:06;98366.28;;;4.83;100.00
20394;BME280;10356;50.544;9.642;2022-10-10T06:55:32;98366.88;;;4.88;100.00
20394;BME280;10356;50.544;9.642;2022-10-10T06:57:59;98371.72;;;4.94;100.00
20394;BME280;10356;50.544;9.642;2022-10-10T07:00:25;98377.41;;;5.00;100.00
20394;BME280;10356;50.544;9.642;2022-10-10T07:02:52;98371.66;;;5.11;100.00
20394;BME280;10356;50.544;9.642;2022-10-10T07:05:18;98361.50;;;5.24;100.00
20394;BME280;10356;50.544;9.642;2022-10-10T07:07:46;98359.94;;;5.37;100.00
20394;BME280;10356;50.544;9.642;2022-10-10T07:10:14;98345.25;;;5.53;100.00
20394;BME280;10356;50.544;9.642;2022-10-10T07:12:41;98355.41;;;5.71;100.00
20394;BME280;10356;50.544;9.642;2022-10-10T07:15:08;98356.88;;;5.75;100.00
20394;BME280;10356;50.544;9.642;2022-10-10T07:17:35;98356.69;;;5.78;100.00
20394;BME280;10356;50.544;9.642;2022-10-10T07:20:03;98354.03;;;5.80;100.00
20394;BME280;10356;50.544;9.642;2022-10-10T07:22:29;98357.34;;;5.82;100.00
20394;BME280;10356;50.544;9.642;2022-10-10T07:24:57;98366.38;;;5.90;100.00
20394;BME280;10356;50.544;9.642;2022-10-10T07:27:23;98366.25;;;6.08;100.00
20394;BME280;10356;50.544;9.642;2022-10-10T07:29:50;98360.03;;;6.26;100.00
20394;BME280;10356;50.544;9.642;2022-10-10T07:32:16;98359.59;;;6.47;100.00
20394;BME280;10356;50.544;9.642;2022-10-10T07:34:43;98366.09;;;6.68;100.00
20394;BME280;10356;50.544;9.642;2022-10-10T07:37:09;98377.63;;;6.91;100.00
20394;BME280;10356;50.544;9.642;2022-10-10T07:39:36;98361.03;;;7.22;100.00
20394;BME280;10356;50.544;9.642;2022-10-10T07:42:04;98362.38;;;7.41;100.00
20394;BME280;10356;50.544;9.642;2022-10-10T07:44:30;98371.59;;;7.59;100.00
20394;BME280;10356;50.544;9.642;2022-10-10T07:46:57;98377.63;;;7.87;100.00
20394;BME280;10356;50.544;9.642;2022-10-10T07:49:23;98374.47;;;8.08;100.00
20394;BME280;10356;50.544;9.642;2022-10-10T07:51:50;98370.19;;;8.46;100.00
20394;BME280;10356;50.544;9.642;2022-10-10T07:54:16;98370.41;;;8.69;100.00
20394;BME280;10356;50.544;9.642;2022-10-10T07:56:43;98378.09;;;8.95;100.00
20394;BME280;10356;50.544;9.642;2022-10-10T07:59:11;98364.34;;;9.18;100.00
20394;BME280;10356;50.544;9.642;2022-10-10T08:01:37;98374.22;;;9.50;100.00
20394;BME280;10356;50.544;9.642;2022-10-10T08:04:04;98357.97;;;9.59;100.00
20394;BME280;10356;50.544;9.642;2022-10-10T08:06:30;98367.06;;;9.77;100.00
20394;BME280;10356;50.544;9.642;2022-10-10T08:08:57;98374.25;;;9.97;100.00
20394;BME280;10356;50.544;9.642;2022-10-10T08:11:23;98374.81;;;10.13;100.00
20394;BME280;10356;50.544;9.642;2022-10-10T08:13:50;98368.03;;;10.34;100.00
20394;BME280;10356;50.544;9.642;2022-10-10T08:16:18;98373.66;;;10.52;99.73
20394;BME280;10356;50.544;9.642;2022-10-10T08:18:44;98378.06;;;10.62;99.60
20394;BME280;10356;50.544;9.642;2022-10-10T08:21:12;98371.44;;;10.80;97.07
20394;BME280;10356;50.544;9.642;2022-10-10T08:23:39;98372.72;;;10.97;96.37
20394;BME280;10356;50.544;9.642;2022-10-10T08:26:09;98359.94;;;11.16;95.01
20394;BME280;10356;50.544;9.642;2022-10-10T08:28:36;98370.59;;;11.24;95.43
20394;BME280;10356;50.544;9.642;2022-10-10T08:31:04;98361.94;;;11.35;93.83
20394;BME280;10356;50.544;9.642;2022-10-10T08:33:32;98356.56;;;11.47;94.33
20394;BME280;10356;50.544;9.642;2022-10-10T08:36:03;98356.44;;;11.60;93.13
20394;BME280;10356;50.544;9.642;2022-10-10T08:38:30;98349.75;;;11.78;93.18
20394;BME280;10356;50.544;9.642;2022-10-10T08:40:58;98353.75;;;11.93;92.49
20394;BME280;10356;50.544;9.642;2022-10-10T08:43:30;98358.88;;;12.15;91.42
20394;BME280;10356;50.544;9.642;2022-10-10T08:46:03;98367.25;;;12.30;89.55
20394;BME280;10356;50.544;9.642;2022-10-10T08:48:33;98347.03;;;12.52;88.89
20394;BME280;10356;50.544;9.642;2022-10-10T08:51:03;98354.97;;;12.62;87.90
20394;BME280;10356;50.544;9.642;2022-10-10T08:53:35;98361.75;;;12.74;87.23
20394;BME280;10356;50.544;9.642;2022-10-10T08:56:06;98363.72;;;12.82;87.03
20394;BME280;10356;50.544;9.642;2022-10-10T08:58:36;98358.59;;;13.01;87.47
20394;BME280;10356;50.544;9.642;2022-10-10T09:01:08;98351.28;;;13.25;85.61
20394;BME280;10356;50.544;9.642;2022-10-10T09:03:41;98355.16;;;13.40;85.47
20394;BME280;10356;50.544;9.642;2022-10-10T09:06:29;98355.25;;;13.69;83.55
20394;BME280;10356;50.544;9.642;2022-10-10T09:09:06;98357.88;;;13.78;82.57
20394;BME280;10356;50.544;9.642;2022-10-10T09:11:49;98356.38;;;13.85;82.58
20394;BME280;10356;50.544;9.642;2022-10-10T09:14:29;98352.91;;;13.94;82.05
20394;BME280;10356;50.544;9.642;2022-10-10T09:17:05;98359.41;;;13.90;81.39
20394;BME280;10356;50.544;9.642;2022-10-10T09:19:43;98351.69;;;14.17;80.29
20394;BME280;10356;50.544;9.642;2022-10-10T09:22:15;98355.31;;;14.36;79.50
20394;BME280;10356;50.544;9.642;2022-10-10T09:24:47;98356.38;;;14.62;79.23
20394;BME280;10356;50.544;9.642;2022-10-10T09:27:21;98363.53;;;14.69;79.25
20394;BME280;10356;50.544;9.642;2022-10-10T09:29:51;98367.66;;;14.72;77.66
20394;BME280;10356;50.544;9.642;2022-10-10T09:32:22;98367.34;;;14.84;77.07
20394;BME280;10356;50.544;9.642;2022-10-10T09:34:53;98369.66;;;14.97;76.32
20394;BME280;10356;50.544;9.642;2022-10-10T09:37:24;98364.88;;;15.20;75.32
20394;BME280;10356;50.544;9.642;2022-10-10T09:39:57;98362.25;;;15.20;74.37
20394;BME280;10356;50.544;9.642;2022-10-10T09:42:30;98362.09;;;15.58;74.31
20394;BME280;10356;50.544;9.642;2022-10-10T09:44:59;98350.56;;;15.68;72.90
20394;BME280;10356;50.544;9.642;2022-10-10T09:47:26;98345.69;;;15.91;72.18
20394;BME280;10356;50.544;9.642;2022-10-10T09:49:54;98346.91;;;15.96;71.91
20394;BME280;10356;50.544;9.642;2022-10-10T09:52:25;98347.19;;;16.11;71.51
20394;BME280;10356;50.544;9.642;2022-10-10T09:54:56;98344.81;;;16.18;70.75
20394;BME280;10356;50.544;9.642;2022-10-10T09:57:26;98353.22;;;16.04;70.90
20394;BME280;10356;50.544;9.642;2022-10-10T09:59:54;98355.75;;;16.31;69.94
20394;BME280;10356;50.544;9.642;2022-10-10T10:02:22;98354.22;;;16.63;68.92
20394;BME280;10356;50.544;9.642;2022-10-10T10:04:51;98353.25;;;16.90;67.60
20394;BME280;10356;50.544;9.642;2022-10-10T10:07:25;98352.22;;;16.83;68.60
20394;BME280;10356;50.544;9.642;2022-10-10T10:09:54;98344.69;;;16.88;67.41
20394;BME280;10356;50.544;9.642;2022-10-10T10:12:23;98338.13;;;16.92;68.26
20394;BME280;10356;50.544;9.642;2022-10-10T10:14:51;98335.88;;;17.05;67.71
20394;BME280;10356;50.544;9.642;2022-10-10T10:17:22;98339.25;;;17.23;67.09
20394;BME280;10356;50.544;9.642;2022-10-10T10:19:50;98346.56;;;17.37;66.40
20394;BME280;10356;50.544;9.642;2022-10-10T10:22:30;98347.16;;;17.23;67.26
20394;BME280;10356;50.544;9.642;2022-10-10T10:24:57;98348.91;;;17.48;66.73
20394;BME280;10356;50.544;9.642;2022-10-10T10:27:26;98347.34;;;17.72;66.27
20394;BME280;10356;50.544;9.642;2022-10-10T10:29:55;98340.66;;;17.85;64.93
20394;BME280;10356;50.544;9.642;2022-10-10T10:32:43;98351.03;;;17.95;64.70
20394;BME280;10356;50.544;9.642;2022-10-10T10:35:19;98344.47;;;18.07;63.82
20394;BME280;10356;50.544;9.642;2022-10-10T10:38:04;98353.50;;;17.88;63.87
20394;BME280;10356;50.544;9.642;2022-10-10T10:40:38;98347.03;;;17.75;64.62
20394;BME280;10356;50.544;9.642;2022-10-10T10:43:26;98353.84;;;17.85;64.59
20394;BME280;10356;50.544;9.642;2022-10-10T10:46:05;98352.19;;;17.92;65.02
20394;BME280;10356;50.544;9.642;2022-10-10T10:48:39;98341.00;;;18.22;63.68
20394;BME280;10356;50.544;9.642;2022-10-10T10:51:17;98336.94;;;18.44;62.12
20394;BME280;10356;50.544;9.642;2022-10-10T10:53:54;98341.84;;;18.39;62.42
20394;BME280;10356;50.544;9.642;2022-10-10T10:56:29;98341.53;;;18.34;62.87
20394;BME280;10356;50.544;9.642;2022-10-10T10:59:16;98327.69;;;18.32;62.81
20394;BME280;10356;50.544;9.642;2022-10-10T11:01:51;98321.72;;;18.38;63.61
20394;BME280;10356;50.544;9.642;2022-10-10T11:04:32;98321.06;;;18.76;62.30
20394;BME280;10356;50.544;9.642;2022-10-10T11:07:05;98326.63;;;18.89;63.07
20394;BME280;10356;50.544;9.642;2022-10-10T11:09:43;98321.34;;;18.89;61.81
20394;BME280;10356;50.544;9.642;2022-10-10T11:12:21;98322.78;;;19.08;61.09
20394;BME280;10356;50.544;9.642;2022-10-10T11:14:55;98300.75;;;19.23;60.50
20394;BME280;10356;50.544;9.642;2022-10-10T11:17:28;98307.91;;;19.07;60.76
20394;BME280;10356;50.544;9.642;2022-10-10T11:20:01;98312.03;;;19.09;61.07
20394;BME280;10356;50.544;9.642;2022-10-10T11:22:30;98302.75;;;19.21;60.80
20394;BME280;10356;50.544;9.642;2022-10-10T11:25:04;98307.63;;;19.49;60.49
20394;BME280;10356;50.544;9.642;2022-10-10T11:27:37;98305.94;;;19.48;59.64
20394;BME280;10356;50.544;9.642;2022-10-10T11:30:12;98307.38;;;19.58;60.22
20394;BME280;10356;50.544;9.642;2022-10-10T11:32:46;98303.72;;;19.28;60.28
20394;BME280;10356;50.544;9.642;2022-10-10T11:35:26;98305.06;;;19.24;61.33
20394;BME280;10356;50.544;9.642;2022-10-10T11:37:59;98306.09;;;19.54;60.54
20394;BME280;10356;50.544;9.642;2022-10-10T11:40:32;98308.91;;;19.53;60.92
20394;BME280;10356;50.544;9.642;2022-10-10T11:43:04;98313.88;;;19.78;60.19
20394;BME280;10356;50.544;9.642;2022-10-10T11:45:35;98316.56;;;19.70;61.20
20394;BME280;10356;50.544;9.642;2022-10-10T11:48:12;98313.19;;;19.84;61.10
20394;BME280;10356;50.544;9.642;2022-10-10T11:50:43;98305.22;;;19.62;61.81
20394;BME280;10356;50.544;9.642;2022-10-10T11:53:14;98309.75;;;19.76;61.10
20394;BME280;10356;50.544;9.642;2022-10-10T11:55:51;98307.41;;;19.81;60.46
20394;BME280;10356;50.544;9.642;2022-10-10T11:58:25;98308.00;;;19.91;60.63
20394;BME280;10356;50.544;9.642;2022-10-10T12:00:57;98309.53;;;20.08;61.08
20394;BME280;10356;50.544;9.642;2022-10-10T12:03:24;98304.50;;;20.21;59.88
20394;BME280;10356;50.544;9.642;2022-10-10T12:05:54;98309.38;;;20.32;59.01
20394;BME280;10356;50.544;9.642;2022-10-10T12:08:28;98309.09;;;20.27;58.86
20394;BME280;10356;50.544;9.642;2022-10-10T12:11:06;98309.53;;;20.31;58.94
20394;BME280;10356;50.544;9.642;2022-10-10T12:13:37;98310.88;;;20.49;58.66
20394;BME280;10356;50.544;9.642;2022-10-10T12:16:07;98315.53;;;20.47;58.70
20394;BME280;10356;50.544;9.642;2022-10-10T12:18:40;98314.94;;;20.74;57.84
20394;BME280;10356;50.544;9.642;2022-10-10T12:21:11;98315.22;;;20.79;58.04
20394;BME280;10356;50.544;9.642;2022-10-10T12:23:38;98314.78;;;20.90;57.81
20394;BME280;10356;50.544;9.642;2022-10-10T12:26:12;98315.66;;;20.83;57.87
20394;BME280;10356;50.544;9.642;2022-10-10T12:28:58;98312.06;;;20.47;58.88
20394;BME280;10356;50.544;9.642;2022-10-10T12:31:30;98298.66;;;20.03;60.53
20394;BME280;10356;50.544;9.642;2022-10-10T12:34:10;98300.72;;;19.93;61.13
20394;BME280;10356;50.544;9.642;2022-10-10T12:36:55;98299.66;;;20.02;61.15
20394;BME280;10356;50.544;9.642;2022-10-10T12:39:31;98291.91;;;20.00;62.07
20394;BME280;10356;50.544;9.642;2022-10-10T12:41:59;98292.78;;;20.16;62.25
20394;BME280;10356;50.544;9.642;2022-10-10T12:44:43;98288.50;;;20.37;59.79
20394;BME280;10356;50.544;9.642;2022-10-10T12:47:24;98284.66;;;20.54;59.97
20394;BME280;10356;50.544;9.642;2022-10-10T12:49:55;98295.22;;;20.62;59.48
20394;BME280;10356;50.544;9.642;2022-10-10T12:52:25;98286.75;;;20.44;59.87
20394;BME280;10356;50.544;9.642;2022-10-10T12:54:53;98287.50;;;19.93;62.20
20394;BME280;10356;50.544;9.642;2022-10-10T12:57:29;98296.78;;;20.34;61.37
20394;BME280;10356;50.544;9.642;2022-10-10T13:00:03;98301.19;;;20.56;60.68
20394;BME280;10356;50.544;9.642;2022-10-10T13:02:30;98296.88;;;20.78;58.59
20394;BME280;10356;50.544;9.642;2022-10-10T13:04:59;98298.50;;;20.64;59.92
20394;BME280;10356;50.544;9.642;2022-10-10T13:07:27;98298.50;;;20.64;58.99
20394;BME280;10356;50.544;9.642;2022-10-10T13:10:03;98296.28;;;20.53;59.94
20394;BME280;10356;50.544;9.642;2022-10-10T13:12:31;98295.84;;;20.64;59.52
20394;BME280;10356;50.544;9.642;2022-10-10T13:14:58;98295.84;;;20.64;59.96